Broad Arrow, Australia
Current Conditions -  °F | °C
As of 7:30 PM on Saturday 25 Oct 2014 (Local Time) from YPKG Reporting Station
Clear Clear  
Wind Chill: 79°   Ceiling: Unl
Heat Index: 79°   Visibility: NA
Dew Point: 32°   Wind: 13mph
Humidity: 18%   Direction: 240°WSW
Pressure: 29.94"   Gusts: NA
Location:  30.44°S, 121.31°E
Report Text: YPKG 251130Z AUTO 24011KT //// // NCD 26/00 Q1014
Loading
Personal Weather Stations






























Interactive Weather Map
Tropical Storm Tracking
New forecast layout! Learn more

10-Day Weather Forecast

Advertisements
Track Severe Weather on mobile